Airfield :
LOGIN :

Register | Disclaimer

   EN    FR    IT 

 










Legend :    VFR   Marginal VFR   IFR   Intensive IFR   Very Intensive IFR
Visi :
Ceiling :
>= 8 km
>= 3000ft
5 to 8 km
1000 to 3000 ft
1500m to 5 km
500 to 1000 ft
800 to 1500m
200 to 500 ft
< 800m
< 200 ft
Symbols :   Thunderstorms  Fog  Heavy snow  Heavy precipitations  Wind > 20 kt
SIGMETs :     Misc.  Thunderstorms  Icing  Turbulence  Mountain Waves  Volcanic Ashes






- Airport Elevation : 598 ft
- IATA code : BQH


EGKB - Biggin Hill

CURRENT METAR :
  • 150850Z 20011KT CAVOK 22/15 Q1003

EXPIRED METARs :
  • 150820Z 20012KT CAVOK 21/15 Q1003
  • 150750Z 21010KT CAVOK 20/15 Q1003
  • 150720Z 21010KT CAVOK 20/15 Q1003
  • 150650Z 19011KT 9000 NSC 18/16 Q1003
  • 150620Z 19011KT 8000 NSC 18/16 Q1003

TAF TAF EGKB
Valid from the 15 at 09:00 until the 15 at 18:00 UTC


150755Z 1509/1518 21009KT CAVOK
TEMPO 1512/1518 8000 SHRA
PROB30
TEMPO 1512/1518 3000 +SHRA +TSGS BKN045CB



MET'MAP, your aeronautical weather chart ! - Copyright ORBIFLY December 2007 - Disclaimer

ORBIFLY MET'MAP TEAM :

Programming & Development : Alexandra Zaïnal
Original concept : Baudouin d'Aumeries
Technical & hardware support : Manuel Goepfert
Assistance : Marc-Olivier Méhu




SOURCES & CREDITS :

   NOAA